createdAt,value
2018-03-08T00:00:01.565Z,70.56
2018-03-08T00:05:02.576Z,70.31
2018-03-08T00:10:03.527Z,70.34
2018-03-08T00:15:04.484Z,70.47
2018-03-08T00:20:05.428Z,70.49
2018-03-08T00:25:06.352Z,70.48
2018-03-08T08:07:55.793Z,82.61
2018-03-08T08:12:56.738Z,84.43
2018-03-08T08:23:42.619Z,85.73
2018-03-08T08:28:43.565Z,83.96
2018-03-08T08:33:44.571Z,84.30
2018-03-08T08:38:45.512Z,86.88
2018-03-08T08:43:46.462Z,85.62
2018-03-08T08:48:47.410Z,86.78
2018-03-08T08:53:48.388Z,87.53
2018-03-08T08:58:49.310Z,86.65
2018-03-08T09:03:50.255Z,86.74
2018-03-08T09:08:51.222Z,87.00
2018-03-08T09:13:52.413Z,85.48
2018-03-08T09:18:53.357Z,86.58
2018-03-08T09:23:54.300Z,86.45
2018-03-08T09:28:55.244Z,86.68
2018-03-08T09:33:56.185Z,86.29
2018-03-08T09:38:57.127Z,84.71
2018-03-08T09:43:58.104Z,85.43
2018-03-08T09:48:59.043Z,83.67
2018-03-08T09:53:59.992Z,82.74
2018-03-08T09:59:00.943Z,82.68
2018-03-08T10:04:01.879Z,84.34
2018-03-08T10:09:02.854Z,83.71
2018-03-08T10:14:03.816Z,84.11
2018-03-08T10:19:04.769Z,85.59
2018-03-08T10:24:05.710Z,87.23
2018-03-08T10:29:06.660Z,86.66
2018-03-08T10:34:08.067Z,86.58
2018-03-08T10:44:10.594Z,85.85
2018-03-08T10:49:11.858Z,87.39
2018-03-08T10:54:12.797Z,86.62
2018-03-08T10:59:13.769Z,85.01
2018-03-08T11:04:14.748Z,86.11
2018-03-08T11:09:15.677Z,86.34
2018-03-08T11:14:16.653Z,85.79
2018-03-08T11:19:17.612Z,86.38
2018-03-08T11:24:18.543Z,87.55
2018-03-08T11:29:19.480Z,87.27
2018-03-08T11:34:20.437Z,88.28
2018-03-08T11:39:21.374Z,88.28
2018-03-08T11:44:22.357Z,88.09
2018-03-08T11:49:23.317Z,87.64
2018-03-08T11:54:24.267Z,88.07
2018-03-08T11:59:25.255Z,87.72
2018-03-08T12:04:26.219Z,87.70
2018-03-08T12:09:27.183Z,87.82
2018-03-08T12:14:28.208Z,87.32
2018-03-08T12:19:29.165Z,85.24
2018-03-08T12:24:30.133Z,85.49
2018-03-08T12:29:31.101Z,84.03
2018-03-08T12:34:32.066Z,82.91
2018-03-08T12:39:33.018Z,81.65
2018-03-08T12:44:33.979Z,80.89
2018-03-08T12:49:34.957Z,79.26
2018-03-08T12:54:35.892Z,76.80
2018-03-08T12:59:36.850Z,77.09
2018-03-08T13:04:37.876Z,77.20
2018-03-08T13:09:38.805Z,75.05
2018-03-08T13:14:39.792Z,70.30
2018-03-08T13:19:40.763Z,67.89
2018-03-08T13:24:41.712Z,69.55
2018-03-08T13:29:42.641Z,68.10
2018-03-08T13:34:43.623Z,67.05
2018-03-08T13:39:44.568Z,63.53
2018-03-08T13:44:45.510Z,60.08
2018-03-08T13:49:46.485Z,61.57
2018-03-08T13:54:47.441Z,59.39
2018-03-08T13:59:48.397Z,60.31
2018-03-08T14:04:49.321Z,57.45
2018-03-08T14:09:50.254Z,59.38
2018-03-08T14:14:51.220Z,60.07
2018-03-08T14:19:52.170Z,62.05
2018-03-08T14:24:53.116Z,61.18
2018-03-08T14:29:54.079Z,63.31
2018-03-08T14:34:55.070Z,61.50
2018-03-08T14:39:56.343Z,57.77
2018-03-08T14:44:57.302Z,59.96
2018-03-08T14:49:58.288Z,60.88
2018-03-08T14:54:59.296Z,62.71
2018-03-08T15:00:00.269Z,62.73
2018-03-08T15:05:01.489Z,58.94
2018-03-08T15:10:02.451Z,58.06
2018-03-08T15:15:03.467Z,55.71
2018-03-08T15:20:04.713Z,55.56
2018-03-08T15:25:05.666Z,60.21
2018-03-08T15:30:06.630Z,63.40
2018-03-08T15:35:07.601Z,64.79
2018-03-08T15:40:08.826Z,64.81
2018-03-08T15:45:09.745Z,63.81
2018-03-08T15:50:10.949Z,63.24
2018-03-08T15:55:11.918Z,63.83
2018-03-08T16:00:12.904Z,65.11
2018-03-08T16:05:13.857Z,64.14
2018-03-08T16:10:33.955Z,64.24
2018-03-08T16:15:34.952Z,65.26
2018-03-08T16:20:36.267Z,65.56
2018-03-08T16:25:37.276Z,65.89
2018-03-08T16:30:38.233Z,65.54
2018-03-08T16:35:39.655Z,66.16
2018-03-08T16:40:40.619Z,67.25
2018-03-08T16:45:42.652Z,68.44
2018-03-08T16:50:43.630Z,70.73
2018-03-08T16:55:44.576Z,71.27
2018-03-08T17:00:45.538Z,72.76
2018-03-08T17:05:46.510Z,74.46
2018-03-08T17:10:47.480Z,74.69
2018-03-08T17:15:48.511Z,77.01
2018-03-08T17:20:49.469Z,77.24
2018-03-08T17:25:50.450Z,79.19
2018-03-08T17:30:51.418Z,79.69
2018-03-08T17:35:52.378Z,79.98
2018-03-08T17:40:53.369Z,80.14
2018-03-08T17:45:54.363Z,81.72
2018-03-08T17:50:55.340Z,81.96
2018-03-08T17:55:56.332Z,82.37
2018-03-08T18:00:57.306Z,84.00
2018-03-08T18:05:58.244Z,84.16
2018-03-08T18:10:59.224Z,84.35
2018-03-08T18:16:00.242Z,84.09
2018-03-08T18:21:01.200Z,83.96
2018-03-08T18:26:02.168Z,84.05
2018-03-08T18:31:03.170Z,84.84
2018-03-08T18:36:04.130Z,84.96
2018-03-08T18:41:05.107Z,84.67
2018-03-08T18:46:06.056Z,85.53
2018-03-08T18:51:07.047Z,85.25
2018-03-08T18:56:08.040Z,85.35
2018-03-08T19:01:09.015Z,85.79
2018-03-08T19:06:10.015Z,86.14
2018-03-08T19:11:10.987Z,85.91
2018-03-08T19:16:12.001Z,86.27
2018-03-08T19:21:12.948Z,86.13
2018-03-08T19:26:14.023Z,85.86
2018-03-08T19:31:15.020Z,86.45
2018-03-08T19:36:16.024Z,85.98
2018-03-08T19:41:16.987Z,85.86
2018-03-08T19:46:17.973Z,85.87
2018-03-08T19:51:19.006Z,86.08
2018-03-08T19:56:20.013Z,86.25
2018-03-08T20:01:21.040Z,86.55
2018-03-08T20:06:22.484Z,85.97
2018-03-08T20:11:23.438Z,86.94
2018-03-08T20:16:24.461Z,86.56
2018-03-08T20:21:25.428Z,86.69
2018-03-08T20:26:26.448Z,86.05
2018-03-08T20:31:27.431Z,86.13
2018-03-08T20:36:28.445Z,86.64
2018-03-08T20:41:29.410Z,86.46
2018-03-08T20:52:05.457Z,86.21
2018-03-08T20:57:06.449Z,85.35
2018-03-08T21:02:07.750Z,84.82
2018-03-08T21:07:08.729Z,85.99
2018-03-08T21:12:09.728Z,86.49
2018-03-08T21:17:10.699Z,86.32
2018-03-08T21:22:11.698Z,85.92
2018-03-08T21:27:12.667Z,86.95
2018-03-08T21:37:21.236Z,87.35
2018-03-08T21:42:22.206Z,86.85
2018-03-08T21:47:23.166Z,86.97
2018-03-08T21:52:24.469Z,86.54
2018-03-08T21:57:25.452Z,86.41
2018-03-08T22:02:26.412Z,85.95
2018-03-08T22:07:27.374Z,86.67
2018-03-08T22:12:28.337Z,86.45
2018-03-08T22:17:29.314Z,86.17
2018-03-08T22:22:30.285Z,85.77
2018-03-08T22:27:31.234Z,86.26
2018-03-08T22:32:32.201Z,85.45
2018-03-08T22:37:33.188Z,85.64
2018-03-08T22:42:34.170Z,84.95
2018-03-08T22:47:35.120Z,84.52
2018-03-08T22:52:36.297Z,83.53
2018-03-08T22:57:37.306Z,83.68
2018-03-08T23:02:38.241Z,83.59
2018-03-08T23:07:39.193Z,82.93
2018-03-08T23:12:40.135Z,84.16
2018-03-08T23:17:41.074Z,84.01
2018-03-08T23:22:42.041Z,83.63
2018-03-08T23:27:42.967Z,83.49
2018-03-08T23:32:44.216Z,83.52
2018-03-08T23:37:45.176Z,83.74
2018-03-08T23:42:46.117Z,84.30
2018-03-08T23:47:47.093Z,82.71
2018-03-08T23:52:48.044Z,83.46
2018-03-08T23:57:49.038Z,83.14
